Time;durP1;ratioP1;P1;durP2;ratioP2;P2;SDS_P1;SDS_P2;PMS_P1;PMS_P2;Temp;Humidity;BMP_temperature;BMP_pressure;BME280_temperature;BME280_humidity;BME280_pressure;Samples;Min_cycle;Max_cycle;Signal;HPM_P1;HPM_P2
2022/08/07 10:47:53;;;;;;;;;;;;;;;;;;4845149;27;7138244;-82
2022/08/07 11:16:50;;;;;;;;;;;;;;;;;;4946009;27;1999896;-64
2022/08/07 11:19:16;;;;;;;;;;;;;;;;;;5001157;28;169019;-63
2022/08/07 11:29:02;;;;;;;20.40;12.07;;;;;;;24.18;48.21;102123.91;5012312;28;193353;-59
2022/08/07 11:31:36;;;;;;;18.10;11.75;;;;;;;25.88;43.98;102129.75;5010243;28;20127;-61
2022/08/07 12:00:24;;;;;;;3.67;1.02;;;;;;;23.70;44.32;102097.19;5093418;27;20472;-39
2022/08/07 12:03:18;;;;;;;5.13;1.10;;;;;;;23.27;45.08;102095.47;5030821;28;86989;-36
2022/08/07 12:06:05;;;;;;;5.00;0.80;;;;;;;22.91;46.07;102111.47;5017525;28;20049;-43
2022/08/07 12:11:00;;;;;;;2.08;1.02;;;;;;;22.43;47.84;102103.13;4992522;28;69942;-42
2022/08/07 12:13:53;;;;;;;4.13;0.98;;;;;;;22.32;49.15;102099.41;4988826;28;20352;-40
2022/08/07 12:16:27;;;;;;;2.80;0.73;;;;;;;22.47;48.98;102091.03;4992678;28;20346;-44
2022/08/07 12:19:24;;;;;;;4.68;1.00;;;;;;;22.64;48.94;102087.53;4994962;28;20356;-40
2022/08/07 12:22:12;;;;;;;5.07;1.30;;;;;;;22.68;49.61;102096.84;5014392;28;20060;-40
2022/08/07 12:28:38;;;;;;;1.40;0.77;;;;;;;22.60;49.78;102084.69;5013248;28;20056;-40
2022/08/07 12:31:17;;;;;;;4.85;1.50;;;;;;;22.70;48.64;102083.13;5012775;28;20046;-41
2022/08/07 12:33:51;;;;;;;1.65;0.60;;;;;;;22.84;48.66;102083.22;5014040;28;20045;-40
2022/08/07 12:36:33;;;;;;;2.15;0.73;;;;;;;22.96;48.29;102091.31;5000866;28;20524;-39
2022/08/07 12:39:05;;;;;;;2.72;0.85;;;;;;;23.10;48.01;102082.09;5013107;28;20176;-40
2022/08/07 12:41:53;;;;;;;4.30;1.33;;;;;;;23.01;47.70;102080.44;5012832;28;20052;-42
2022/08/07 12:44:24;;;;;;;4.45;1.40;;;;;;;23.06;47.63;102084.88;5013315;28;20496;-36
2022/08/07 12:47:07;;;;;;;2.08;1.27;;;;;;;23.26;47.25;102082.53;5006574;28;20049;-41
2022/08/07 12:49:45;;;;;;;2.55;0.77;;;;;;;23.50;47.09;102079.81;5013570;28;20720;-40
2022/08/07 12:52:45;;;;;;;2.85;0.80;;;;;;;23.73;46.50;102079.41;5013331;28;20049;-40
2022/08/07 12:55:27;;;;;;;3.38;0.50;;;;;;;23.89;46.03;102073.34;5016190;28;20522;-40
2022/08/07 12:58:13;;;;;;;1.77;0.80;;;;;;;23.93;45.80;102071.34;5021680;28;20534;-40
2022/08/07 13:00:58;;;;;;;8.38;2.10;;;;;;;24.16;46.30;102068.94;5021128;28;20037;-40
2022/08/07 13:03:51;;;;;;;3.88;1.23;;;;;;;24.36;45.84;102074.97;5014662;28;20668;-40
2022/08/07 13:07:04;;;;;;;3.80;0.90;;;;;;;24.08;45.67;102068.13;5021040;28;20046;-43
2022/08/07 13:10:00;;;;;;;3.50;0.80;;;;;;;24.13;46.16;102066.91;5021735;28;20057;-40
2022/08/07 13:13:09;;;;;;;0.90;0.60;;;;;;;24.43;45.47;102069.28;5017765;28;20050;-43
2022/08/07 13:16:16;;;;;;;3.03;0.70;;;;;;;24.59;44.51;102069.66;5009750;28;20096;-41
2022/08/07 13:18:59;;;;;;;2.80;0.98;;;;;;;24.49;44.09;102067.66;5021519;28;20496;-40
2022/08/07 13:21:32;;;;;;;4.18;1.50;;;;;;;24.58;44.17;102060.34;5005925;28;20038;-40
2022/08/07 13:24:37;;;;;;;3.05;0.80;;;;;;;24.49;44.08;102071.28;5008383;28;20046;-40
2022/08/07 13:27:28;;;;;;;2.30;0.82;;;;;;;24.18;44.61;102070.13;5007013;28;20041;-40
2022/08/07 13:30:16;;;;;;;4.05;1.63;;;;;;;23.98;44.75;102068.09;5006177;28;20407;-40
2022/08/07 13:33:36;;;;;;;3.03;0.93;;;;;;;23.93;44.71;102065.69;5008572;28;20038;-40
2022/08/07 13:36:31;;;;;;;3.42;0.90;;;;;;;24.35;43.80;102065.66;4994739;28;20038;-40
2022/08/07 13:39:51;;;;;;;1.77;0.65;;;;;;;24.86;43.34;102058.66;5005307;28;20119;-40
2022/08/07 13:42:39;;;;;;;2.55;0.50;;;;;;;25.28;43.09;102062.03;4985022;28;20137;-44
2022/08/07 13:45:10;;;;;;;0.90;0.50;;;;;;;25.61;42.44;102068.34;4994596;28;20403;-40
2022/08/07 13:48:01;;;;;;;3.28;2.13;;;;;;;25.93;41.08;102063.22;5007466;28;20061;-40
2022/08/07 13:50:38;;;;;;;3.95;1.48;;;;;;;26.09;41.12;102060.63;5007023;28;20586;-40
2022/08/07 13:53:35;;;;;;;5.88;2.33;;;;;;;25.94;41.01;102059.97;5005965;28;20056;-44
2022/08/07 13:56:24;;;;;;;5.07;2.67;;;;;;;25.51;41.33;102053.03;5001836;28;20050;-40
2022/08/07 13:59:11;;;;;;;1.70;1.17;;;;;;;25.51;41.58;102053.03;5007635;28;20449;-40
2022/08/07 14:01:51;;;;;;;4.68;1.70;;;;;;;25.46;41.64;102047.78;5007721;28;20052;-40
2022/08/07 14:04:34;;;;;;;5.90;1.85;;;;;;;25.65;41.17;102052.94;5005972;28;20224;-41
2022/08/07 14:07:20;;;;;;;1.75;0.95;;;;;;;25.87;40.58;102054.34;5006708;28;20478;-40
2022/08/07 14:09:59;;;;;;;2.85;0.90;;;;;;;26.03;40.19;102057.44;5007393;28;20077;-42
2022/08/07 14:12:58;;;;;;;4.68;0.85;;;;;;;26.07;39.94;102053.75;4996394;28;20054;-40
2022/08/07 14:15:41;;;;;;;1.98;0.50;;;;;;;26.27;39.35;102055.59;5005234;28;20140;-40
2022/08/07 14:18:16;;;;;;;3.33;0.50;;;;;;;26.32;39.03;102045.81;5006378;28;20096;-40
2022/08/07 14:21:16;;;;;;;1.45;0.57;;;;;;;26.66;38.61;102037.31;5004116;28;20061;-42
2022/08/07 14:24:37;;;;;;;3.80;0.80;;;;;;;27.00;37.94;102053.16;5007354;28;20053;-41
2022/08/07 14:27:13;;;;;;;3.47;0.65;;;;;;;27.20;37.83;102050.41;5001716;28;20078;-42
2022/08/07 14:30:04;;;;;;;2.60;1.02;;;;;;;26.93;37.81;102056.06;4994268;28;20053;-40
2022/08/07 14:32:41;;;;;;;3.05;1.08;;;;;;;27.02;38.06;102050.69;4980320;28;20042;-43
2022/08/07 14:35:14;;;;;;;1.15;0.60;;;;;;;27.32;37.89;102041.31;4987188;28;20046;-44
2022/08/07 14:38:04;;;;;;;3.30;0.63;;;;;;;27.53;37.06;102040.22;4994653;28;20050;-40
2022/08/07 14:40:34;;;;;;;2.50;0.52;;;;;;;27.51;36.85;102037.00;5001013;28;20121;-41
2022/08/07 14:43:04;;;;;;;2.08;0.50;;;;;;;27.57;36.82;102043.78;5006886;28;20770;-40
2022/08/07 14:45:54;;;;;;;1.83;0.85;;;;;;;27.60;36.36;102040.09;5000776;28;20510;-39
2022/08/07 14:48:26;;;;;;;3.13;1.23;;;;;;;27.69;36.35;102026.13;5006002;28;20660;-41
2022/08/07 14:50:59;;;;;;;3.47;1.00;;;;;;;27.82;36.04;102032.81;5006168;28;20053;-44
2022/08/07 14:53:32;;;;;;;1.88;0.68;;;;;;;27.92;35.67;102028.16;5007838;28;20049;-40
2022/08/07 14:56:22;;;;;;;2.28;0.55;;;;;;;27.97;35.89;102036.19;5005569;28;20045;-40
2022/08/07 14:59:05;;;;;;;1.85;0.68;;;;;;;27.62;36.19;102026.22;5006639;28;20057;-41
2022/08/07 15:02:20;;;;;;;1.27;0.50;;;;;;;27.67;36.10;102026.53;5005878;28;20459;-40
2022/08/07 15:05:01;;;;;;;2.90;0.50;;;;;;;28.07;36.27;102029.53;5007125;28;20422;-40
2022/08/07 15:07:30;;;;;;;4.10;0.88;;;;;;;28.07;35.51;102026.69;5006043;28;20383;-41
2022/08/07 15:10:20;;;;;;;2.38;0.93;;;;;;;28.09;35.57;102022.16;5006344;28;20068;-41
2022/08/07 15:13:16;;;;;;;3.40;0.80;;;;;;;27.91;35.38;102020.84;5007067;28;20577;-40
2022/08/07 15:15:47;;;;;;;1.55;0.50;;;;;;;27.59;35.83;102013.66;5005654;28;20149;-40
2022/08/07 15:18:39;;;;;;;1.55;0.50;;;;;;;27.70;35.43;102007.78;5004410;28;20124;-41
2022/08/07 15:21:30;;;;;;;3.35;0.50;;;;;;;27.75;35.56;102004.44;5006434;28;20053;-40
2022/08/07 15:24:24;;;;;;;1.40;0.68;;;;;;;27.84;35.38;101993.31;5006478;28;20679;-45
2022/08/07 15:27:14;;;;;;;1.65;0.40;;;;;;;27.90;34.92;101994.44;5006771;28;20057;-43
2022/08/07 15:29:45;;;;;;;1.13;0.68;;;;;;;28.19;35.12;101992.69;5006762;28;20054;-44
2022/08/07 15:32:32;;;;;;;4.15;0.95;;;;;;;28.32;34.35;101987.94;5003073;28;20040;-43
2022/08/07 15:35:11;;;;;;;1.25;0.40;;;;;;;27.97;34.11;101980.06;5006403;28;20120;-44
2022/08/07 15:37:40;;;;;;;1.42;0.30;;;;;;;27.69;34.75;101980.59;5005668;28;20049;-41
2022/08/07 15:40:32;;;;;;;1.27;0.50;;;;;;;27.96;34.60;101986.19;5000953;28;20046;-42
2022/08/07 15:43:16;;;;;;;2.67;0.60;;;;;;;28.19;34.46;101992.69;4999743;28;20046;-44
2022/08/07 15:46:17;;;;;;;6.78;0.88;;;;;;;28.54;34.68;101973.25;4993872;28;20496;-40
2022/08/07 15:49:09;;;;;;;;;;;;;;;28.57;34.95;101978.09;5005585;28;20133;-40
2022/08/07 15:51:44;;;;;;;1.95;0.40;;;;;;;28.52;34.15;101972.88;4998557;28;19921;-41
2022/08/07 15:54:43;;;;;;;1.35;0.50;;;;;;;28.19;34.38;101986.19;4998042;28;20042;-40
2022/08/07 15:57:19;;;;;;;1.23;0.55;;;;;;;28.33;34.56;101983.84;4992067;28;20459;-45
2022/08/07 16:00:04;;;;;;;0.95;0.60;;;;;;;28.69;33.47;101986.00;5001497;28;20104;-42
2022/08/07 16:02:44;;;;;;;1.85;0.40;;;;;;;28.57;33.34;101975.25;5000993;28;20038;-48
2022/08/07 16:05:18;;;;;;;0.93;0.53;;;;;;;28.19;34.23;101974.78;5003123;28;20519;-42
2022/08/07 16:08:05;;;;;;;1.77;0.40;;;;;;;28.42;33.44;101968.22;5002802;28;20034;-44
2022/08/07 16:10:51;;;;;;;1.80;0.52;;;;;;;28.46;33.18;101966.09;4990452;28;20137;-40
2022/08/07 16:13:18;;;;;;;2.17;0.73;;;;;;;28.52;32.79;101965.13;5003676;28;20558;-40
2022/08/07 16:16:15;;;;;;;2.13;0.93;;;;;;;28.63;32.96;101959.25;4999422;28;20832;-42
2022/08/07 16:19:25;;;;;;;2.50;1.00;;;;;;;28.11;33.17;101970.47;4999644;28;20058;-40
2022/08/07 16:22:38;;;;;;;1.20;0.52;;;;;;;27.52;34.04;101970.31;5000299;28;20052;-41
2022/08/07 16:25:40;;;;;;;2.00;0.50;;;;;;;27.29;34.28;101968.22;5003454;28;20054;-39
2022/08/07 16:28:58;;;;;;;1.38;0.40;;;;;;;27.22;34.50;101959.78;5001030;28;20050;-40
2022/08/07 16:32:09;;;;;;;1.55;0.70;;;;;;;27.24;34.83;101957.34;5002669;28;20133;-39
2022/08/07 16:35:17;;;;;;;1.98;0.60;;;;;;;27.56;34.58;101962.53;4996576;28;20049;-42
2022/08/07 16:38:26;;;;;;;0.90;0.60;;;;;;;27.73;34.43;101952.84;4995373;28;20057;-39
2022/08/07 16:41:34;;;;;;;1.60;0.82;;;;;;;27.85;33.70;101966.47;4992222;28;20049;-39
2022/08/07 16:44:21;;;;;;;2.92;0.50;;;;;;;27.93;33.57;101953.72;4987113;28;20556;-40
2022/08/07 16:47:30;;;;;;;2.28;0.60;;;;;;;28.10;33.75;101955.44;4979618;28;20463;-39
2022/08/07 16:50:44;;;;;;;2.78;0.40;;;;;;;28.11;33.18;101947.69;4981143;28;20811;-45
2022/08/07 16:53:57;;;;;;;3.75;0.50;;;;;;;28.41;32.99;101950.31;4973981;28;20086;-39
2022/08/07 16:56:53;;;;;;;1.27;0.73;;;;;;;28.53;33.01;101949.66;4983451;28;20078;-40
2022/08/07 16:59:49;;;;;;;1.77;0.45;;;;;;;28.55;33.05;101957.75;5004434;28;20132;-42
2022/08/07 17:02:38;;;;;;;4.70;1.00;;;;;;;28.60;33.25;101948.69;5002169;28;20387;-41
2022/08/07 17:05:45;;;;;;;1.25;0.40;;;;;;;28.57;33.06;101941.03;4999175;28;20042;-42
2022/08/07 17:08:46;;;;;;;4.28;0.70;;;;;;;28.20;32.65;101953.59;4997646;28;20053;-44
2022/08/07 17:11:42;;;;;;;2.50;0.73;;;;;;;27.42;33.14;101952.19;5000043;28;20175;-42
2022/08/07 17:14:42;;;;;;;4.43;0.90;;;;;;;26.86;34.07;101953.84;5008078;28;20045;-35
2022/08/07 17:17:48;;;;;;;1.75;0.43;;;;;;;26.44;34.54;101952.38;5000746;28;20046;-34
2022/08/07 17:20:36;;;;;;;2.67;1.42;;;;;;;26.68;34.24;101949.63;4975450;28;20054;-41
2022/08/07 17:23:21;;;;;;;2.47;0.50;;;;;;;26.86;34.23;101941.69;4986103;28;20880;-37
2022/08/07 17:26:10;;;;;;;2.85;0.70;;;;;;;26.97;33.67;101948.81;4993277;28;20058;-40
2022/08/07 17:29:08;;;;;;;1.15;0.50;;;;;;;26.71;34.44;101946.75;5002979;28;20053;-37
2022/08/07 17:32:00;;;;;;;2.72;0.90;;;;;;;26.39;35.04;101944.34;5003637;28;20893;-38
2022/08/07 17:34:45;;;;;;;3.08;0.77;;;;;;;26.14;35.57;101948.69;5005908;28;20053;-41
2022/08/07 17:37:48;;;;;;;3.88;1.77;;;;;;;25.90;35.05;101944.88;5032089;28;20136;-45
2022/08/07 17:40:51;;;;;;;3.35;1.85;;;;;;;25.90;35.71;101940.00;4993145;28;20510;-42
2022/08/07 17:43:35;;;;;;;0.95;0.57;;;;;;;25.87;35.72;101940.84;5005018;28;20061;-41
2022/08/07 17:46:25;;;;;;;1.55;0.57;;;;;;;25.67;35.94;101941.88;5006381;28;20041;-40
2022/08/07 17:49:20;;;;;;;2.55;1.00;;;;;;;25.63;36.19;101930.53;5005157;28;20049;-42
2022/08/07 17:52:12;;;;;;;4.15;0.80;;;;;;;25.91;36.10;101935.13;5001237;28;20401;-40
2022/08/07 17:55:06;;;;;;;0.98;0.60;;;;;;;26.20;35.29;101936.44;5006687;28;20522;-41
2022/08/07 17:57:54;;;;;;;1.48;1.08;;;;;;;26.36;35.07;101941.53;5004119;28;20511;-40
2022/08/07 18:00:29;;;;;;;2.83;0.60;;;;;;;26.68;35.05;101939.06;5006226;28;20523;-38
2022/08/07 18:03:27;;;;;;;4.18;0.70;;;;;;;26.60;35.08;101934.72;5004029;28;20156;-36
2022/08/07 18:06:14;;;;;;;5.85;0.70;;;;;;;26.26;34.94;101940.44;5004440;28;20135;-40
2022/08/07 18:09:03;;;;;;;2.28;0.68;;;;;;;25.87;35.17;101940.03;5003336;28;20061;-48
2022/08/07 18:11:41;;;;;;;2.83;0.70;;;;;;;25.51;35.41;101933.91;5004806;28;20498;-45
2022/08/07 18:14:45;;;;;;;3.85;0.47;;;;;;;25.18;35.90;101940.22;5001019;28;20092;-42
2022/08/07 18:17:34;;;;;;;1.92;0.80;;;;;;;25.00;36.40;101942.38;4996068;28;20043;-42
2022/08/07 18:20:35;;;;;;;2.92;0.90;;;;;;;24.97;36.72;101937.53;4998192;28;20141;-39
2022/08/07 18:23:44;;;;;;;1.83;0.50;;;;;;;24.89;36.69;101936.00;5002628;28;20041;-42
2022/08/07 18:26:17;;;;;;;2.03;0.57;;;;;;;24.68;37.27;101943.38;5000831;28;20042;-40
2022/08/07 18:29:03;;;;;;;3.17;1.05;;;;;;;24.52;37.54;101942.22;5032122;28;20056;-39
2022/08/07 18:31:40;;;;;;;3.88;1.10;;;;;;;24.42;37.61;101938.25;4996075;28;20050;-41
2022/08/07 18:34:41;;;;;;;3.55;1.15;;;;;;;24.43;37.82;101939.88;4996898;28;20111;-42
2022/08/07 18:37:36;;;;;;;3.08;0.90;;;;;;;24.33;37.81;101946.34;5001913;28;20630;-44
2022/08/07 18:40:46;;;;;;;3.15;0.70;;;;;;;24.27;37.94;101956.50;4997906;28;20061;-43
2022/08/07 18:43:56;;;;;;;5.10;0.90;;;;;;;24.25;38.16;101950.47;4996377;28;20046;-43
2022/08/07 18:46:35;;;;;;;2.55;0.98;;;;;;;24.26;38.05;101940.72;4997159;28;20056;-43
2022/08/07 18:49:45;;;;;;;2.17;1.00;;;;;;;24.28;37.98;101960.16;4992552;28;20065;-44
2022/08/07 18:52:47;;;;;;;2.22;0.88;;;;;;;24.18;38.39;101953.28;4997277;28;20468;-47
2022/08/07 18:55:44;;;;;;;1.70;0.70;;;;;;;24.15;39.07;101956.94;4995130;28;20124;-45
2022/08/07 18:58:41;;;;;;;2.88;0.70;;;;;;;24.16;38.80;101956.53;4998125;28;20073;-40
2022/08/07 19:01:37;;;;;;;2.78;0.80;;;;;;;24.28;38.49;101966.59;5000801;28;20514;-41
2022/08/07 19:04:34;;;;;;;2.67;1.20;;;;;;;24.14;39.10;101961.81;5001317;28;20037;-46
2022/08/07 19:07:31;;;;;;;5.90;1.15;;;;;;;24.05;39.16;101961.38;5001697;28;20124;-41
2022/08/07 19:10:16;;;;;;;3.33;1.20;;;;;;;23.97;39.44;101965.44;4982694;28;20424;-43
2022/08/07 19:12:53;;;;;;;3.75;1.60;;;;;;;23.91;39.43;101969.91;4988541;28;20444;-42
2022/08/07 19:15:42;;;;;;;1.75;0.98;;;;;;;23.88;39.47;101972.75;4984922;28;20082;-42
2022/08/07 19:18:44;;;;;;;3.00;1.65;;;;;;;23.72;39.59;101978.84;5001606;28;20499;-42
2022/08/07 19:21:38;;;;;;;4.47;0.95;;;;;;;23.68;39.67;101985.69;5002054;28;20510;-41
2022/08/07 19:24:39;;;;;;;4.97;1.08;;;;;;;23.61;39.95;101992.97;5003963;28;20034;-44
2022/08/07 19:27:12;;;;;;;1.38;0.52;;;;;;;23.55;40.32;101985.28;4997673;28;20428;-45
2022/08/07 19:30:03;;;;;;;5.05;1.38;;;;;;;23.46;40.32;101997.00;5006468;28;20129;-42
2022/08/07 19:32:52;;;;;;;3.70;1.03;;;;;;;23.34;40.92;101997.38;5001142;28;20058;-41
2022/08/07 19:35:27;;;;;;;3.50;1.15;;;;;;;23.26;41.02;101995.75;4998105;28;20295;-41
2022/08/07 19:38:02;;;;;;;3.92;1.10;;;;;;;23.20;41.10;101994.53;5002553;28;20804;-42
2022/08/07 19:40:37;;;;;;;8.02;1.30;;;;;;;23.19;41.13;102001.41;4996068;28;20077;-43
2022/08/07 19:43:25;;;;;;;4.70;2.08;;;;;;;23.06;41.60;102005.78;5000431;28;20046;-43
2022/08/07 19:46:14;;;;;;;2.00;0.70;;;;;;;22.94;41.76;102001.34;4994281;28;20069;-45
2022/08/07 19:48:47;;;;;;;5.80;1.58;;;;;;;22.84;41.76;102006.97;5002426;28;20488;-42
2022/08/07 19:51:22;;;;;;;5.43;1.13;;;;;;;22.71;42.51;102005.72;5002876;28;20052;-42
2022/08/07 19:54:09;;;;;;;1.45;0.80;;;;;;;22.62;42.91;102008.03;4995371;28;20125;-42
2022/08/07 19:57:00;;;;;;;4.22;1.42;;;;;;;22.58;43.22;102008.06;4994166;28;20064;-44
2022/08/07 19:59:51;;;;;;;;;;;;;;;22.50;42.87;102011.22;5003816;28;20058;-42
2022/08/07 20:02:43;;;;;;;3.13;1.10;;;;;;;22.44;43.30;102017.25;5001635;28;19965;-44
2022/08/07 20:05:38;;;;;;;4.15;1.50;;;;;;;22.38;43.83;102018.84;5004359;28;20061;-43
2022/08/07 20:08:31;;;;;;;5.25;1.35;;;;;;;22.31;44.16;102026.44;4998059;28;20468;-42
2022/08/07 20:11:02;;;;;;;5.07;1.70;;;;;;;22.26;44.37;102030.47;4998144;28;20056;-44
2022/08/07 20:13:47;;;;;;;4.93;2.03;;;;;;;22.14;44.35;102027.97;4999300;28;20042;-44
2022/08/07 20:16:25;;;;;;;4.18;1.23;;;;;;;22.09;44.92;102036.78;4998934;28;20088;-42
2022/08/07 20:19:04;;;;;;;3.08;1.17;;;;;;;22.06;45.20;102031.13;5003289;28;20044;-43
2022/08/07 20:21:36;;;;;;;3.47;1.27;;;;;;;22.06;45.54;102048.84;4994795;28;20129;-42
2022/08/07 20:24:21;;;;;;;4.35;1.20;;;;;;;22.07;45.56;102047.66;5001246;28;20053;-42
2022/08/07 20:26:51;;;;;;;5.65;1.27;;;;;;;22.10;45.06;102055.34;4996679;28;20825;-43
2022/08/07 20:29:24;;;;;;;1.90;0.85;;;;;;;22.16;45.17;102052.97;4998759;28;20042;-42
2022/08/07 20:32:16;;;;;;;4.53;1.25;;;;;;;22.07;45.61;102055.31;4999791;28;20121;-47
2022/08/07 20:34:54;;;;;;;3.70;1.23;;;;;;;21.99;45.63;102054.44;5006161;28;20124;-43
2022/08/07 20:37:46;;;;;;;4.30;0.98;;;;;;;21.93;46.06;102056.00;5007958;28;20077;-43
2022/08/07 20:40:27;;;;;;;3.83;1.13;;;;;;;21.90;46.33;102051.16;5002323;28;20156;-45
2022/08/07 20:43:01;;;;;;;5.80;1.25;;;;;;;21.93;46.04;102047.53;5007045;28;20100;-44
2022/08/07 20:45:31;;;;;;;4.32;1.65;;;;;;;21.89;46.21;102048.72;4995434;28;20092;-45
2022/08/07 20:48:23;;;;;;;4.93;1.95;;;;;;;21.83;46.50;102051.88;5006116;28;20392;-43
2022/08/07 20:50:58;;;;;;;6.38;1.52;;;;;;;21.82;46.78;102060.72;5005582;28;20060;-44
2022/08/07 20:53:26;;;;;;;3.40;1.23;;;;;;;21.77;46.83;102059.06;5009175;28;20046;-42
2022/08/07 20:56:15;;;;;;;5.07;1.60;;;;;;;21.69;47.45;102054.56;4998347;28;20046;-46
2022/08/07 20:58:54;;;;;;;2.47;1.33;;;;;;;21.68;47.29;102058.59;5002554;28;20042;-42
2022/08/07 21:01:26;;;;;;;3.03;1.75;;;;;;;21.67;47.24;102061.81;5000600;28;20137;-41
2022/08/07 21:04:07;;;;;;;1.80;0.70;;;;;;;21.65;47.35;102061.38;5001096;28;20100;-42
2022/08/07 21:06:53;;;;;;;3.63;0.85;;;;;;;21.60;47.28;102050.47;5001179;28;20100;-48
2022/08/07 21:09:30;;;;;;;4.88;1.10;;;;;;;21.57;47.72;102043.59;4997563;28;20094;-42
2022/08/07 21:12:18;;;;;;;4.45;1.48;;;;;;;21.54;47.66;102052.84;4999322;28;20053;-42
2022/08/07 21:14:56;;;;;;;4.55;1.02;;;;;;;21.54;47.99;102052.03;4998904;28;20053;-49
2022/08/07 21:17:26;;;;;;;3.55;1.17;;;;;;;21.51;47.67;102044.34;5005792;28;20132;-41
2022/08/07 21:20:15;;;;;;;;;;;;;;;21.42;47.73;102041.84;5003877;28;20496;-47
2022/08/07 21:22:57;;;;;;;3.00;1.33;;;;;;;21.39;48.06;102047.47;5002299;28;20405;-42
2022/08/07 21:26:08;;;;;;;4.18;1.40;;;;;;;21.39;48.14;102053.09;5000844;28;20072;-42
2022/08/07 21:29:17;;;;;;;5.53;1.23;;;;;;;21.33;48.08;102065.91;5000398;28;20066;-42
2022/08/07 21:32:09;;;;;;;3.35;1.10;;;;;;;21.31;48.28;102062.66;4982746;28;20068;-48
2022/08/07 21:35:17;;;;;;;3.38;1.05;;;;;;;21.22;48.60;102058.16;5005825;28;20056;-44
2022/08/07 21:38:22;;;;;;;3.83;1.23;;;;;;;21.27;48.57;102054.16;5003239;28;20048;-46
2022/08/07 21:40:53;;;;;;;4.15;1.15;;;;;;;21.21;48.70;102059.34;4999881;28;20049;-42
2022/08/07 21:43:33;;;;;;;4.25;0.90;;;;;;;21.16;49.34;102054.06;5004096;28;20062;-45
2022/08/07 21:46:38;;;;;;;6.05;1.35;;;;;;;21.12;49.33;102053.22;5002316;28;20084;-47
2022/08/07 21:49:16;;;;;;;2.13;1.58;;;;;;;21.08;49.83;102057.97;5005831;28;20045;-43
2022/08/07 21:52:01;;;;;;;3.42;1.27;;;;;;;21.03;49.96;102055.47;5003348;28;20082;-42
2022/08/07 21:54:57;;;;;;;4.78;1.73;;;;;;;20.99;49.91;102057.47;5007046;28;20053;-43
2022/08/07 21:57:38;;;;;;;4.18;1.10;;;;;;;21.00;49.93;102053.44;5004605;28;20038;-42
2022/08/07 22:00:23;;;;;;;4.78;1.10;;;;;;;20.96;50.30;102057.41;4996635;28;20125;-41
2022/08/07 22:03:03;;;;;;;6.35;1.63;;;;;;;20.91;50.52;102055.75;5006721;28;20143;-42
2022/08/07 22:05:40;;;;;;;4.53;1.10;;;;;;;20.88;51.12;102064.97;5005106;28;20373;-48
2022/08/07 22:08:17;;;;;;;4.32;1.45;;;;;;;20.85;50.76;102062.91;5002028;28;20132;-41
2022/08/07 22:10:52;;;;;;;3.05;1.00;;;;;;;20.83;50.93;102059.69;5005728;28;20481;-43
2022/08/07 22:13:22;;;;;;;2.22;1.00;;;;;;;20.83;51.16;102070.94;5004797;28;20456;-41
2022/08/07 22:16:15;;;;;;;3.05;1.27;;;;;;;20.83;50.89;102059.69;5005551;28;20097;-42
2022/08/07 22:19:22;;;;;;;5.22;1.45;;;;;;;20.80;51.02;102065.25;5004469;28;20044;-41
2022/08/07 22:22:11;;;;;;;3.25;1.00;;;;;;;20.81;51.20;102062.03;5003584;28;20149;-49
2022/08/07 22:25:01;;;;;;;7.63;1.35;;;;;;;20.78;51.21;102065.66;5003572;28;20530;-45
2022/08/07 22:27:53;;;;;;;3.58;1.48;;;;;;;20.78;51.31;102057.22;5004729;28;20479;-41
2022/08/07 22:31:37;;;;;;;3.05;1.00;;;;;;;20.72;51.38;102063.53;5005737;28;20073;-43
2022/08/07 22:34:44;;;;;;;3.13;1.25;;;;;;;20.72;51.34;102080.44;5003888;28;20080;-42
2022/08/07 22:37:28;;;;;;;3.65;1.33;;;;;;;20.67;51.29;102067.50;5009962;28;20042;-41
2022/08/07 22:40:52;;;;;;;5.53;1.52;;;;;;;20.64;51.62;102062.66;5006291;28;20050;-47
2022/08/07 22:43:38;;;;;;;3.63;1.45;;;;;;;20.56;52.25;102066.56;5008838;28;20492;-43
2022/08/07 22:46:23;;;;;;;3.58;1.13;;;;;;;20.51;52.08;102075.34;5010122;28;20562;-43
2022/08/07 22:50:04;;;;;;;2.92;1.02;;;;;;;20.51;52.41;102076.16;5002174;28;20608;-41
2022/08/07 22:52:54;;;;;;;2.33;1.10;;;;;;;20.50;51.88;102071.69;4964594;28;20046;-42
2022/08/07 22:55:48;;;;;;;2.00;1.15;;;;;;;20.49;51.87;102075.69;4997362;28;20496;-41
2022/08/07 22:58:43;;;;;;;3.53;1.10;;;;;;;20.41;52.07;102082.41;5001395;28;20057;-46
2022/08/07 23:01:24;;;;;;;2.67;1.83;;;;;;;20.43;52.09;102076.41;5008370;28;20381;-41
2022/08/07 23:04:13;;;;;;;3.72;1.30;;;;;;;20.37;52.27;102081.56;4997390;28;20492;-41
2022/08/07 23:07:35;;;;;;;5.97;1.30;;;;;;;20.30;52.39;102080.66;5009610;28;20034;-42
2022/08/07 23:10:19;;;;;;;2.78;1.30;;;;;;;20.19;52.50;102102.13;4976907;28;20118;-45
2022/08/07 23:13:46;;;;;;;3.75;1.15;;;;;;;20.04;52.78;102101.13;5009609;28;20534;-41
2022/08/07 23:16:44;;;;;;;3.03;1.02;;;;;;;19.92;52.92;102096.50;5003512;28;20037;-49
2022/08/07 23:22:54;;;;;;;3.20;1.30;;;;;;;19.65;53.96;102099.59;5009622;28;20407;-41
2022/08/07 23:25:47;;;;;;;9.85;1.40;;;;;;;19.54;53.74;102096.59;5008417;28;20114;-46
2022/08/07 23:28:19;;;;;;;2.38;1.20;;;;;;;19.48;54.32;102095.31;5001310;28;20038;-44
2022/08/07 23:31:06;;;;;;;2.50;1.27;;;;;;;19.43;54.56;102099.22;5004356;28;20041;-44
2022/08/07 23:34:08;;;;;;;3.92;1.98;;;;;;;19.41;54.65;102098.78;5002276;28;20049;-41
2022/08/07 23:37:13;;;;;;;8.65;1.42;;;;;;;19.41;54.92;102100.78;5006289;28;20069;-42
2022/08/07 23:40:13;;;;;;;3.47;1.27;;;;;;;19.32;55.10;102103.81;5007960;28;20050;-41
2022/08/07 23:43:16;;;;;;;2.55;0.90;;;;;;;19.27;55.38;102098.47;5006316;28;20140;-47
2022/08/07 23:45:56;;;;;;;4.93;1.48;;;;;;;19.20;55.57;102097.53;4985744;28;20053;-41
2022/08/07 23:48:53;;;;;;;3.33;1.50;;;;;;;19.10;55.91;102096.16;4986069;28;20496;-45
2022/08/07 23:51:25;;;;;;;4.88;1.40;;;;;;;19.03;55.89;102095.19;4983897;28;20053;-42
2022/08/07 23:54:31;;;;;;;5.15;1.83;;;;;;;18.95;56.13;102099.03;4984418;28;20534;-41
2022/08/07 23:57:27;;;;;;;5.15;2.55;;;;;;;18.80;56.80;102101.53;5004766;28;20136;-42
